sensor_id;sensor_type;location;lat;lon;timestamp;temperature;humidity
13606;DHT22;6874;52.084;5.090;2022-07-05T00:02:01;17.80;69.70
13606;DHT22;6874;52.084;5.090;2022-07-05T00:04:27;17.80;69.70
13606;DHT22;6874;52.084;5.090;2022-07-05T00:06:53;17.80;69.80
13606;DHT22;6874;52.084;5.090;2022-07-05T00:09:37;17.70;69.80
13606;DHT22;6874;52.084;5.090;2022-07-05T00:12:03;17.70;69.50
13606;DHT22;6874;52.084;5.090;2022-07-05T00:14:28;17.70;70.00
13606;DHT22;6874;52.084;5.090;2022-07-05T00:16:54;17.60;69.70
13606;DHT22;6874;52.084;5.090;2022-07-05T00:19:19;17.60;69.80
13606;DHT22;6874;52.084;5.090;2022-07-05T00:21:45;17.60;69.60
13606;DHT22;6874;52.084;5.090;2022-07-05T00:24:11;17.50;69.90
13606;DHT22;6874;52.084;5.090;2022-07-05T00:26:36;17.50;69.80
13606;DHT22;6874;52.084;5.090;2022-07-05T00:29:02;17.50;69.80
13606;DHT22;6874;52.084;5.090;2022-07-05T00:31:27;17.50;69.90
13606;DHT22;6874;52.084;5.090;2022-07-05T00:33:53;17.40;70.10
13606;DHT22;6874;52.084;5.090;2022-07-05T00:36:18;17.40;69.80
13606;DHT22;6874;52.084;5.090;2022-07-05T00:38:44;17.40;69.80
13606;DHT22;6874;52.084;5.090;2022-07-05T00:41:09;17.30;69.70
13606;DHT22;6874;52.084;5.090;2022-07-05T00:43:35;17.30;70.40
13606;DHT22;6874;52.084;5.090;2022-07-05T00:46:01;17.20;70.10
13606;DHT22;6874;52.084;5.090;2022-07-05T00:48:26;17.30;70.10
13606;DHT22;6874;52.084;5.090;2022-07-05T00:50:52;17.20;70.20
13606;DHT22;6874;52.084;5.090;2022-07-05T00:53:17;17.30;70.20
13606;DHT22;6874;52.084;5.090;2022-07-05T00:55:44;17.20;70.10
13606;DHT22;6874;52.084;5.090;2022-07-05T00:58:11;17.10;70.40
13606;DHT22;6874;52.084;5.090;2022-07-05T01:00:37;17.20;70.30
13606;DHT22;6874;52.084;5.090;2022-07-05T01:03:03;17.10;70.20
13606;DHT22;6874;52.084;5.090;2022-07-05T01:05:31;17.10;70.40
13606;DHT22;6874;52.084;5.090;2022-07-05T01:07:59;17.10;70.30
13606;DHT22;6874;52.084;5.090;2022-07-05T01:10:26;17.10;70.40
13606;DHT22;6874;52.084;5.090;2022-07-05T01:12:52;17.00;70.70
13606;DHT22;6874;52.084;5.090;2022-07-05T01:15:20;17.00;70.50
13606;DHT22;6874;52.084;5.090;2022-07-05T01:17:46;17.00;70.80
13606;DHT22;6874;52.084;5.090;2022-07-05T01:20:12;17.00;70.50
13606;DHT22;6874;52.084;5.090;2022-07-05T01:22:53;17.00;70.80
13606;DHT22;6874;52.084;5.090;2022-07-05T01:25:20;16.90;70.90
13606;DHT22;6874;52.084;5.090;2022-07-05T01:27:46;16.90;70.80
13606;DHT22;6874;52.084;5.090;2022-07-05T01:30:13;16.90;70.60
13606;DHT22;6874;52.084;5.090;2022-07-05T01:32:38;16.90;70.80
13606;DHT22;6874;52.084;5.090;2022-07-05T01:35:04;16.90;70.70
13606;DHT22;6874;52.084;5.090;2022-07-05T01:37:30;16.80;70.60
13606;DHT22;6874;52.084;5.090;2022-07-05T01:39:57;16.80;70.90
13606;DHT22;6874;52.084;5.090;2022-07-05T01:42:23;16.80;70.80
13606;DHT22;6874;52.084;5.090;2022-07-05T01:44:49;16.80;70.80
13606;DHT22;6874;52.084;5.090;2022-07-05T01:47:15;16.80;70.60
13606;DHT22;6874;52.084;5.090;2022-07-05T01:49:46;16.80;70.80
13606;DHT22;6874;52.084;5.090;2022-07-05T01:52:14;16.70;70.80
13606;DHT22;6874;52.084;5.090;2022-07-05T01:54:41;16.70;70.90
13606;DHT22;6874;52.084;5.090;2022-07-05T01:57:07;16.70;70.80
13606;DHT22;6874;52.084;5.090;2022-07-05T01:59:35;16.70;71.10
13606;DHT22;6874;52.084;5.090;2022-07-05T02:02:06;16.70;70.80
13606;DHT22;6874;52.084;5.090;2022-07-05T02:04:34;16.60;70.90
13606;DHT22;6874;52.084;5.090;2022-07-05T02:06:59;16.60;70.70
13606;DHT22;6874;52.084;5.090;2022-07-05T02:09:28;16.60;70.70
13606;DHT22;6874;52.084;5.090;2022-07-05T02:11:54;16.60;71.30
13606;DHT22;6874;52.084;5.090;2022-07-05T02:14:19;16.60;70.90
13606;DHT22;6874;52.084;5.090;2022-07-05T02:16:45;16.60;71.00
13606;DHT22;6874;52.084;5.090;2022-07-05T02:19:10;16.50;71.00
13606;DHT22;6874;52.084;5.090;2022-07-05T02:21:36;16.50;71.10
13606;DHT22;6874;52.084;5.090;2022-07-05T02:24:01;16.50;71.60
13606;DHT22;6874;52.084;5.090;2022-07-05T02:26:27;16.50;71.10
13606;DHT22;6874;52.084;5.090;2022-07-05T02:28:53;16.50;71.40
13606;DHT22;6874;52.084;5.090;2022-07-05T02:31:18;16.50;71.60
13606;DHT22;6874;52.084;5.090;2022-07-05T02:33:45;16.50;71.50
13606;DHT22;6874;52.084;5.090;2022-07-05T02:36:12;16.40;71.40
13606;DHT22;6874;52.084;5.090;2022-07-05T02:38:39;16.40;71.50
13606;DHT22;6874;52.084;5.090;2022-07-05T02:41:05;16.40;71.40
13606;DHT22;6874;52.084;5.090;2022-07-05T02:43:32;16.40;71.40
13606;DHT22;6874;52.084;5.090;2022-07-05T02:45:58;16.40;71.50
13606;DHT22;6874;52.084;5.090;2022-07-05T02:48:23;16.40;71.50
13606;DHT22;6874;52.084;5.090;2022-07-05T02:50:49;16.40;71.60
13606;DHT22;6874;52.084;5.090;2022-07-05T02:53:14;16.30;71.30
13606;DHT22;6874;52.084;5.090;2022-07-05T02:55:40;16.30;71.30
13606;DHT22;6874;52.084;5.090;2022-07-05T02:58:06;16.30;71.30
13606;DHT22;6874;52.084;5.090;2022-07-05T03:00:32;16.30;71.20
13606;DHT22;6874;52.084;5.090;2022-07-05T03:02:58;16.20;71.40
13606;DHT22;6874;52.084;5.090;2022-07-05T03:05:23;16.20;71.50
13606;DHT22;6874;52.084;5.090;2022-07-05T03:07:49;16.20;71.90
13606;DHT22;6874;52.084;5.090;2022-07-05T03:10:14;16.20;71.50
13606;DHT22;6874;52.084;5.090;2022-07-05T03:12:40;16.20;71.50
13606;DHT22;6874;52.084;5.090;2022-07-05T03:15:06;16.10;71.40
13606;DHT22;6874;52.084;5.090;2022-07-05T03:17:32;16.10;71.50
13606;DHT22;6874;52.084;5.090;2022-07-05T03:19:57;16.10;71.70
13606;DHT22;6874;52.084;5.090;2022-07-05T03:22:23;16.10;71.60
13606;DHT22;6874;52.084;5.090;2022-07-05T03:24:48;16.10;71.50
13606;DHT22;6874;52.084;5.090;2022-07-05T03:27:14;16.00;71.60
13606;DHT22;6874;52.084;5.090;2022-07-05T03:29:39;16.00;71.80
13606;DHT22;6874;52.084;5.090;2022-07-05T03:32:05;16.00;71.90
13606;DHT22;6874;52.084;5.090;2022-07-05T03:34:31;16.00;71.90
13606;DHT22;6874;52.084;5.090;2022-07-05T03:36:56;16.00;71.90
13606;DHT22;6874;52.084;5.090;2022-07-05T03:39:22;16.00;72.00
13606;DHT22;6874;52.084;5.090;2022-07-05T03:41:47;16.00;72.00
13606;DHT22;6874;52.084;5.090;2022-07-05T03:44:13;16.00;72.00
13606;DHT22;6874;52.084;5.090;2022-07-05T03:46:38;15.80;71.90
13606;DHT22;6874;52.084;5.090;2022-07-05T03:49:04;15.90;72.20
13606;DHT22;6874;52.084;5.090;2022-07-05T03:51:29;15.90;71.90
13606;DHT22;6874;52.084;5.090;2022-07-05T03:53:55;15.90;71.90
13606;DHT22;6874;52.084;5.090;2022-07-05T03:56:20;15.90;72.10
13606;DHT22;6874;52.084;5.090;2022-07-05T03:58:49;15.90;72.20
13606;DHT22;6874;52.084;5.090;2022-07-05T04:01:15;15.90;72.10
13606;DHT22;6874;52.084;5.090;2022-07-05T04:03:40;15.90;71.90
13606;DHT22;6874;52.084;5.090;2022-07-05T04:06:07;15.90;72.20
13606;DHT22;6874;52.084;5.090;2022-07-05T04:08:33;15.90;72.00
13606;DHT22;6874;52.084;5.090;2022-07-05T04:10:59;15.90;71.90
13606;DHT22;6874;52.084;5.090;2022-07-05T04:13:24;15.80;71.80
13606;DHT22;6874;52.084;5.090;2022-07-05T04:15:50;15.90;71.80
13606;DHT22;6874;52.084;5.090;2022-07-05T04:18:15;15.90;71.90
13606;DHT22;6874;52.084;5.090;2022-07-05T04:20:41;15.90;71.80
13606;DHT22;6874;52.084;5.090;2022-07-05T04:23:06;15.90;71.80
13606;DHT22;6874;52.084;5.090;2022-07-05T04:25:32;15.90;72.00
13606;DHT22;6874;52.084;5.090;2022-07-05T04:27:57;15.90;72.00
13606;DHT22;6874;52.084;5.090;2022-07-05T04:30:25;15.90;71.80
13606;DHT22;6874;52.084;5.090;2022-07-05T04:32:51;15.90;72.00
13606;DHT22;6874;52.084;5.090;2022-07-05T04:35:16;15.90;72.70
13606;DHT22;6874;52.084;5.090;2022-07-05T04:37:43;15.90;71.80
13606;DHT22;6874;52.084;5.090;2022-07-05T04:40:10;15.90;71.80
13606;DHT22;6874;52.084;5.090;2022-07-05T04:42:36;15.80;72.00
13606;DHT22;6874;52.084;5.090;2022-07-05T04:45:02;15.90;71.90
13606;DHT22;6874;52.084;5.090;2022-07-05T04:47:28;15.90;71.90
13606;DHT22;6874;52.084;5.090;2022-07-05T04:49:54;15.90;72.10
13606;DHT22;6874;52.084;5.090;2022-07-05T04:52:20;15.90;72.10
13606;DHT22;6874;52.084;5.090;2022-07-05T04:54:46;15.90;72.00
13606;DHT22;6874;52.084;5.090;2022-07-05T04:57:12;16.00;71.90
13606;DHT22;6874;52.084;5.090;2022-07-05T04:59:37;16.00;72.00
13606;DHT22;6874;52.084;5.090;2022-07-05T05:02:03;16.00;71.80
13606;DHT22;6874;52.084;5.090;2022-07-05T05:04:28;15.90;71.80
13606;DHT22;6874;52.084;5.090;2022-07-05T05:06:54;16.00;72.00
13606;DHT22;6874;52.084;5.090;2022-07-05T05:09:20;16.00;72.00
13606;DHT22;6874;52.084;5.090;2022-07-05T05:11:46;16.00;71.90
13606;DHT22;6874;52.084;5.090;2022-07-05T05:14:12;16.10;71.80
13606;DHT22;6874;52.084;5.090;2022-07-05T05:16:37;16.10;71.90
13606;DHT22;6874;52.084;5.090;2022-07-05T05:19:03;16.10;72.00
13606;DHT22;6874;52.084;5.090;2022-07-05T05:21:28;16.10;71.70
13606;DHT22;6874;52.084;5.090;2022-07-05T05:23:54;16.10;72.00
13606;DHT22;6874;52.084;5.090;2022-07-05T05:26:20;16.10;71.70
13606;DHT22;6874;52.084;5.090;2022-07-05T05:28:45;16.10;72.00
13606;DHT22;6874;52.084;5.090;2022-07-05T05:31:11;16.10;72.10
13606;DHT22;6874;52.084;5.090;2022-07-05T05:33:36;16.10;71.80
13606;DHT22;6874;52.084;5.090;2022-07-05T05:36:02;16.10;72.10
13606;DHT22;6874;52.084;5.090;2022-07-05T05:38:28;16.10;71.90
13606;DHT22;6874;52.084;5.090;2022-07-05T05:40:54;16.30;72.50
13606;DHT22;6874;52.084;5.090;2022-07-05T05:43:19;16.10;72.80
13606;DHT22;6874;52.084;5.090;2022-07-05T05:45:45;16.10;72.50
13606;DHT22;6874;52.084;5.090;2022-07-05T05:48:10;16.10;72.40
13606;DHT22;6874;52.084;5.090;2022-07-05T05:50:38;16.10;72.40
13606;DHT22;6874;52.084;5.090;2022-07-05T05:53:06;16.20;72.80
13606;DHT22;6874;52.084;5.090;2022-07-05T05:55:32;16.20;73.30
13606;DHT22;6874;52.084;5.090;2022-07-05T05:58:15;16.10;73.10
13606;DHT22;6874;52.084;5.090;2022-07-05T06:00:42;16.20;72.70
13606;DHT22;6874;52.084;5.090;2022-07-05T06:03:08;16.20;72.80
13606;DHT22;6874;52.084;5.090;2022-07-05T06:05:34;16.20;73.20
13606;DHT22;6874;52.084;5.090;2022-07-05T06:07:59;16.20;73.40
13606;DHT22;6874;52.084;5.090;2022-07-05T06:10:33;16.20;73.40
13606;DHT22;6874;52.084;5.090;2022-07-05T06:13:01;16.20;73.50
13606;DHT22;6874;52.084;5.090;2022-07-05T06:15:27;16.20;73.40
13606;DHT22;6874;52.084;5.090;2022-07-05T06:17:53;16.20;75.00
13606;DHT22;6874;52.084;5.090;2022-07-05T06:20:22;16.20;74.80
13606;DHT22;6874;52.084;5.090;2022-07-05T06:22:49;16.30;74.40
13606;DHT22;6874;52.084;5.090;2022-07-05T06:25:15;16.30;77.10
13606;DHT22;6874;52.084;5.090;2022-07-05T06:27:42;16.40;77.40
13606;DHT22;6874;52.084;5.090;2022-07-05T06:30:09;16.40;76.30
13606;DHT22;6874;52.084;5.090;2022-07-05T06:32:35;16.50;76.70
13606;DHT22;6874;52.084;5.090;2022-07-05T06:35:00;16.60;76.50
13606;DHT22;6874;52.084;5.090;2022-07-05T06:37:26;16.60;76.00
13606;DHT22;6874;52.084;5.090;2022-07-05T06:39:51;16.60;75.70
13606;DHT22;6874;52.084;5.090;2022-07-05T06:42:17;16.70;75.40
13606;DHT22;6874;52.084;5.090;2022-07-05T06:44:42;16.70;75.10
13606;DHT22;6874;52.084;5.090;2022-07-05T06:47:09;16.80;75.10
13606;DHT22;6874;52.084;5.090;2022-07-05T06:49:35;16.80;75.10
13606;DHT22;6874;52.084;5.090;2022-07-05T06:52:00;16.80;74.90
13606;DHT22;6874;52.084;5.090;2022-07-05T06:54:26;16.90;74.90
13606;DHT22;6874;52.084;5.090;2022-07-05T06:56:51;17.00;74.80
13606;DHT22;6874;52.084;5.090;2022-07-05T06:59:18;16.90;74.50
13606;DHT22;6874;52.084;5.090;2022-07-05T07:01:44;17.00;74.90
13606;DHT22;6874;52.084;5.090;2022-07-05T07:04:09;17.00;74.80
13606;DHT22;6874;52.084;5.090;2022-07-05T07:06:35;17.10;74.80
13606;DHT22;6874;52.084;5.090;2022-07-05T07:09:00;17.10;74.70
13606;DHT22;6874;52.084;5.090;2022-07-05T07:11:45;17.10;74.40
13606;DHT22;6874;52.084;5.090;2022-07-05T07:14:11;17.10;74.50
13606;DHT22;6874;52.084;5.090;2022-07-05T07:16:36;17.20;74.30
13606;DHT22;6874;52.084;5.090;2022-07-05T07:19:02;17.20;74.50
13606;DHT22;6874;52.084;5.090;2022-07-05T07:21:28;17.20;74.40
13606;DHT22;6874;52.084;5.090;2022-07-05T07:23:53;17.30;74.40
13606;DHT22;6874;52.084;5.090;2022-07-05T07:26:19;17.30;74.40
13606;DHT22;6874;52.084;5.090;2022-07-05T07:28:44;17.30;74.40
13606;DHT22;6874;52.084;5.090;2022-07-05T07:31:10;17.40;74.50
13606;DHT22;6874;52.084;5.090;2022-07-05T07:33:35;17.40;75.30
13606;DHT22;6874;52.084;5.090;2022-07-05T07:36:01;17.50;75.00
13606;DHT22;6874;52.084;5.090;2022-07-05T07:38:27;17.50;75.30
13606;DHT22;6874;52.084;5.090;2022-07-05T07:40:53;17.60;76.00
13606;DHT22;6874;52.084;5.090;2022-07-05T07:43:18;17.60;76.00
13606;DHT22;6874;52.084;5.090;2022-07-05T07:45:44;17.60;75.50
13606;DHT22;6874;52.084;5.090;2022-07-05T07:48:09;17.70;75.50
13606;DHT22;6874;52.084;5.090;2022-07-05T07:50:35;17.80;76.40
13606;DHT22;6874;52.084;5.090;2022-07-05T07:53:01;17.90;75.60
13606;DHT22;6874;52.084;5.090;2022-07-05T07:55:26;17.90;75.90
13606;DHT22;6874;52.084;5.090;2022-07-05T07:57:52;17.90;75.70
13606;DHT22;6874;52.084;5.090;2022-07-05T08:00:18;18.00;75.50
13606;DHT22;6874;52.084;5.090;2022-07-05T08:02:44;18.00;75.50
13606;DHT22;6874;52.084;5.090;2022-07-05T08:05:09;18.20;76.20
13606;DHT22;6874;52.084;5.090;2022-07-05T08:07:36;18.10;75.70
13606;DHT22;6874;52.084;5.090;2022-07-05T08:10:03;18.20;75.90
13606;DHT22;6874;52.084;5.090;2022-07-05T08:12:29;18.30;76.70
13606;DHT22;6874;52.084;5.090;2022-07-05T08:14:55;18.40;76.10
13606;DHT22;6874;52.084;5.090;2022-07-05T08:17:20;18.50;76.30
13606;DHT22;6874;52.084;5.090;2022-07-05T08:19:46;18.60;76.10
13606;DHT22;6874;52.084;5.090;2022-07-05T08:22:31;18.70;76.00
13606;DHT22;6874;52.084;5.090;2022-07-05T08:24:57;18.80;75.90
13606;DHT22;6874;52.084;5.090;2022-07-05T08:27:23;18.90;75.70
13606;DHT22;6874;52.084;5.090;2022-07-05T08:29:49;19.00;75.80
13606;DHT22;6874;52.084;5.090;2022-07-05T08:32:15;19.10;75.40
13606;DHT22;6874;52.084;5.090;2022-07-05T08:34:41;19.30;75.20
13606;DHT22;6874;52.084;5.090;2022-07-05T08:37:06;19.40;75.40
13606;DHT22;6874;52.084;5.090;2022-07-05T08:39:32;19.40;75.10
13606;DHT22;6874;52.084;5.090;2022-07-05T08:41:59;19.50;75.30
13606;DHT22;6874;52.084;5.090;2022-07-05T08:44:28;19.60;75.00
13606;DHT22;6874;52.084;5.090;2022-07-05T08:46:55;19.50;74.50
13606;DHT22;6874;52.084;5.090;2022-07-05T08:49:24;19.60;74.50
13606;DHT22;6874;52.084;5.090;2022-07-05T08:51:50;19.60;74.20
13606;DHT22;6874;52.084;5.090;2022-07-05T08:54:16;19.70;74.40
13606;DHT22;6874;52.084;5.090;2022-07-05T08:56:43;19.60;74.00
13606;DHT22;6874;52.084;5.090;2022-07-05T08:59:08;19.70;74.10
13606;DHT22;6874;52.084;5.090;2022-07-05T09:01:35;19.70;74.50
13606;DHT22;6874;52.084;5.090;2022-07-05T09:04:03;19.70;74.50
13606;DHT22;6874;52.084;5.090;2022-07-05T09:06:32;19.80;74.60
13606;DHT22;6874;52.084;5.090;2022-07-05T09:08:59;19.80;74.80
13606;DHT22;6874;52.084;5.090;2022-07-05T09:11:38;19.90;75.10
13606;DHT22;6874;52.084;5.090;2022-07-05T09:14:06;20.00;75.00
13606;DHT22;6874;52.084;5.090;2022-07-05T09:16:32;20.10;74.80
13606;DHT22;6874;52.084;5.090;2022-07-05T09:19:05;20.20;75.20
13606;DHT22;6874;52.084;5.090;2022-07-05T09:21:31;20.30;75.80
13606;DHT22;6874;52.084;5.090;2022-07-05T09:24:05;20.40;75.40
13606;DHT22;6874;52.084;5.090;2022-07-05T09:29:29;20.70;75.30
13606;DHT22;6874;52.084;5.090;2022-07-05T09:31:55;20.80;74.90
13606;DHT22;6874;52.084;5.090;2022-07-05T09:34:20;20.90;74.60
13606;DHT22;6874;52.084;5.090;2022-07-05T09:39:12;20.90;72.90
13606;DHT22;6874;52.084;5.090;2022-07-05T09:41:38;20.90;73.00
13606;DHT22;6874;52.084;5.090;2022-07-05T09:44:03;20.90;72.80
13606;DHT22;6874;52.084;5.090;2022-07-05T09:46:30;20.80;72.40
13606;DHT22;6874;52.084;5.090;2022-07-05T09:48:56;20.80;72.40
13606;DHT22;6874;52.084;5.090;2022-07-05T09:51:21;20.80;72.70
13606;DHT22;6874;52.084;5.090;2022-07-05T09:53:51;20.90;72.50
13606;DHT22;6874;52.084;5.090;2022-07-05T09:56:17;20.80;73.10
13606;DHT22;6874;52.084;5.090;2022-07-05T09:58:44;20.80;73.40
13606;DHT22;6874;52.084;5.090;2022-07-05T10:01:29;20.90;73.70
13606;DHT22;6874;52.084;5.090;2022-07-05T10:03:57;20.90;74.30
13606;DHT22;6874;52.084;5.090;2022-07-05T10:06:25;21.00;74.20
13606;DHT22;6874;52.084;5.090;2022-07-05T10:08:52;21.10;74.10
13606;DHT22;6874;52.084;5.090;2022-07-05T10:11:19;21.20;73.20
13606;DHT22;6874;52.084;5.090;2022-07-05T10:13:50;21.20;72.90
13606;DHT22;6874;52.084;5.090;2022-07-05T10:16:17;21.20;72.00
13606;DHT22;6874;52.084;5.090;2022-07-05T10:18:47;21.30;72.00
13606;DHT22;6874;52.084;5.090;2022-07-05T10:21:16;21.20;71.70
13606;DHT22;6874;52.084;5.090;2022-07-05T10:23:44;21.30;72.10
13606;DHT22;6874;52.084;5.090;2022-07-05T10:26:11;21.30;72.20
13606;DHT22;6874;52.084;5.090;2022-07-05T10:28:44;21.40;72.40
13606;DHT22;6874;52.084;5.090;2022-07-05T10:31:12;21.40;72.50
13606;DHT22;6874;52.084;5.090;2022-07-05T10:33:38;21.50;71.20
13606;DHT22;6874;52.084;5.090;2022-07-05T10:36:04;21.50;70.90
13606;DHT22;6874;52.084;5.090;2022-07-05T10:38:35;21.50;71.10
13606;DHT22;6874;52.084;5.090;2022-07-05T10:41:03;21.50;71.20
13606;DHT22;6874;52.084;5.090;2022-07-05T10:43:30;21.60;72.20
13606;DHT22;6874;52.084;5.090;2022-07-05T10:45:56;21.70;72.10
13606;DHT22;6874;52.084;5.090;2022-07-05T10:48:26;21.70;71.30
13606;DHT22;6874;52.084;5.090;2022-07-05T10:50:59;21.80;70.70
13606;DHT22;6874;52.084;5.090;2022-07-05T10:53:26;21.80;70.30
13606;DHT22;6874;52.084;5.090;2022-07-05T10:58:25;21.90;69.80
13606;DHT22;6874;52.084;5.090;2022-07-05T11:01:32;21.90;69.30
13606;DHT22;6874;52.084;5.090;2022-07-05T11:11:30;21.90;68.50
13606;DHT22;6874;52.084;5.090;2022-07-05T11:13:56;22.10;69.20
13606;DHT22;6874;52.084;5.090;2022-07-05T11:16:27;22.00;68.80
13606;DHT22;6874;52.084;5.090;2022-07-05T11:19:09;22.00;68.60
13606;DHT22;6874;52.084;5.090;2022-07-05T11:21:36;22.00;69.30
13606;DHT22;6874;52.084;5.090;2022-07-05T11:26:44;22.00;68.80
13606;DHT22;6874;52.084;5.090;2022-07-05T11:32:21;22.10;68.50
13606;DHT22;6874;52.084;5.090;2022-07-05T11:39:43;22.20;68.50
13606;DHT22;6874;52.084;5.090;2022-07-05T11:42:09;22.30;68.30
13606;DHT22;6874;52.084;5.090;2022-07-05T11:44:35;22.30;68.30
13606;DHT22;6874;52.084;5.090;2022-07-05T11:47:01;22.40;68.20
13606;DHT22;6874;52.084;5.090;2022-07-05T11:49:27;22.50;67.20
13606;DHT22;6874;52.084;5.090;2022-07-05T11:51:54;22.50;67.60
13606;DHT22;6874;52.084;5.090;2022-07-05T11:54:24;22.50;67.50
13606;DHT22;6874;52.084;5.090;2022-07-05T11:56:50;22.60;67.00
13606;DHT22;6874;52.084;5.090;2022-07-05T11:59:20;22.60;66.20
13606;DHT22;6874;52.084;5.090;2022-07-05T12:01:46;22.70;64.90
13606;DHT22;6874;52.084;5.090;2022-07-05T12:04:12;22.60;63.00
13606;DHT22;6874;52.084;5.090;2022-07-05T12:06:45;22.70;63.90
13606;DHT22;6874;52.084;5.090;2022-07-05T12:09:13;22.70;64.50
13606;DHT22;6874;52.084;5.090;2022-07-05T12:11:39;22.70;64.60
13606;DHT22;6874;52.084;5.090;2022-07-05T12:14:23;22.80;64.10
13606;DHT22;6874;52.084;5.090;2022-07-05T12:17:09;22.80;64.30
13606;DHT22;6874;52.084;5.090;2022-07-05T12:19:35;22.70;62.40
13606;DHT22;6874;52.084;5.090;2022-07-05T12:22:01;22.80;64.20
13606;DHT22;6874;52.084;5.090;2022-07-05T12:24:26;22.80;63.50
13606;DHT22;6874;52.084;5.090;2022-07-05T12:26:52;22.90;64.10
13606;DHT22;6874;52.084;5.090;2022-07-05T12:29:18;22.90;63.60
13606;DHT22;6874;52.084;5.090;2022-07-05T12:32:04;22.90;63.70
13606;DHT22;6874;52.084;5.090;2022-07-05T12:34:30;23.00;63.40
13606;DHT22;6874;52.084;5.090;2022-07-05T12:36:56;23.00;63.80
13606;DHT22;6874;52.084;5.090;2022-07-05T12:39:23;23.00;63.50
13606;DHT22;6874;52.084;5.090;2022-07-05T12:41:49;23.00;62.70
13606;DHT22;6874;52.084;5.090;2022-07-05T12:44:18;23.10;61.90
13606;DHT22;6874;52.084;5.090;2022-07-05T12:46:44;23.10;61.90
13606;DHT22;6874;52.084;5.090;2022-07-05T12:49:11;23.10;61.30
13606;DHT22;6874;52.084;5.090;2022-07-05T12:51:38;23.10;61.80
13606;DHT22;6874;52.084;5.090;2022-07-05T12:54:07;23.10;62.10
13606;DHT22;6874;52.084;5.090;2022-07-05T12:56:53;23.20;61.40
13606;DHT22;6874;52.084;5.090;2022-07-05T12:59:38;23.20;61.70
13606;DHT22;6874;52.084;5.090;2022-07-05T13:02:06;23.30;62.20
13606;DHT22;6874;52.084;5.090;2022-07-05T13:04:32;23.30;61.90
13606;DHT22;6874;52.084;5.090;2022-07-05T13:07:02;23.30;61.60
13606;DHT22;6874;52.084;5.090;2022-07-05T13:12:32;23.40;61.40
13606;DHT22;6874;52.084;5.090;2022-07-05T13:14:57;23.40;60.90
13606;DHT22;6874;52.084;5.090;2022-07-05T13:17:23;23.40;61.00
13606;DHT22;6874;52.084;5.090;2022-07-05T13:19:51;23.30;61.00
13606;DHT22;6874;52.084;5.090;2022-07-05T13:22:17;23.40;60.70
13606;DHT22;6874;52.084;5.090;2022-07-05T13:24:51;23.40;60.80
13606;DHT22;6874;52.084;5.090;2022-07-05T13:27:20;23.40;60.60
13606;DHT22;6874;52.084;5.090;2022-07-05T13:29:46;23.40;60.80
13606;DHT22;6874;52.084;5.090;2022-07-05T13:32:14;23.40;60.50
13606;DHT22;6874;52.084;5.090;2022-07-05T13:34:42;23.40;60.50
13606;DHT22;6874;52.084;5.090;2022-07-05T13:37:08;23.30;60.80
13606;DHT22;6874;52.084;5.090;2022-07-05T13:39:34;23.40;60.00
13606;DHT22;6874;52.084;5.090;2022-07-05T13:41:59;23.40;60.70
13606;DHT22;6874;52.084;5.090;2022-07-05T13:44:25;23.40;60.20
13606;DHT22;6874;52.084;5.090;2022-07-05T13:46:51;23.40;59.60
13606;DHT22;6874;52.084;5.090;2022-07-05T13:49:16;23.40;60.50
13606;DHT22;6874;52.084;5.090;2022-07-05T13:51:42;23.50;60.80
13606;DHT22;6874;52.084;5.090;2022-07-05T13:54:07;23.40;60.50
13606;DHT22;6874;52.084;5.090;2022-07-05T13:56:33;23.50;60.40
13606;DHT22;6874;52.084;5.090;2022-07-05T13:59:01;23.50;60.00
13606;DHT22;6874;52.084;5.090;2022-07-05T14:01:26;23.50;59.30
13606;DHT22;6874;52.084;5.090;2022-07-05T14:03:53;23.50;58.80
13606;DHT22;6874;52.084;5.090;2022-07-05T14:06:19;23.50;59.00
13606;DHT22;6874;52.084;5.090;2022-07-05T14:08:45;23.50;59.60
13606;DHT22;6874;52.084;5.090;2022-07-05T14:11:11;23.50;59.40
13606;DHT22;6874;52.084;5.090;2022-07-05T14:13:37;23.60;60.40
13606;DHT22;6874;52.084;5.090;2022-07-05T14:16:04;23.60;60.40
13606;DHT22;6874;52.084;5.090;2022-07-05T14:18:29;23.60;60.20
13606;DHT22;6874;52.084;5.090;2022-07-05T14:20:55;23.60;58.90
13606;DHT22;6874;52.084;5.090;2022-07-05T14:23:21;23.50;58.90
13606;DHT22;6874;52.084;5.090;2022-07-05T14:25:46;23.60;60.10
13606;DHT22;6874;52.084;5.090;2022-07-05T14:28:12;23.60;59.70
13606;DHT22;6874;52.084;5.090;2022-07-05T14:30:40;23.60;59.20
13606;DHT22;6874;52.084;5.090;2022-07-05T14:33:06;23.50;59.80
13606;DHT22;6874;52.084;5.090;2022-07-05T14:35:32;23.50;60.10
13606;DHT22;6874;52.084;5.090;2022-07-05T14:37:58;23.50;59.80
13606;DHT22;6874;52.084;5.090;2022-07-05T14:40:25;23.50;60.80
13606;DHT22;6874;52.084;5.090;2022-07-05T14:42:51;23.60;61.40
13606;DHT22;6874;52.084;5.090;2022-07-05T14:45:17;23.60;61.10
13606;DHT22;6874;52.084;5.090;2022-07-05T14:47:43;23.70;61.00
13606;DHT22;6874;52.084;5.090;2022-07-05T14:50:08;23.70;61.40
13606;DHT22;6874;52.084;5.090;2022-07-05T14:52:34;23.70;60.60
13606;DHT22;6874;52.084;5.090;2022-07-05T14:54:59;23.60;59.30
13606;DHT22;6874;52.084;5.090;2022-07-05T14:57:26;23.60;60.00
13606;DHT22;6874;52.084;5.090;2022-07-05T14:59:51;23.60;60.00
13606;DHT22;6874;52.084;5.090;2022-07-05T15:02:17;23.60;59.50
13606;DHT22;6874;52.084;5.090;2022-07-05T15:04:43;23.60;59.80
13606;DHT22;6874;52.084;5.090;2022-07-05T15:07:08;23.60;60.30
13606;DHT22;6874;52.084;5.090;2022-07-05T15:09:34;23.60;59.40
13606;DHT22;6874;52.084;5.090;2022-07-05T15:11:59;23.60;60.50
13606;DHT22;6874;52.084;5.090;2022-07-05T15:14:25;23.60;60.90
13606;DHT22;6874;52.084;5.090;2022-07-05T15:16:54;23.60;60.40
13606;DHT22;6874;52.084;5.090;2022-07-05T15:19:20;23.70;59.60
13606;DHT22;6874;52.084;5.090;2022-07-05T15:21:46;23.60;60.00
13606;DHT22;6874;52.084;5.090;2022-07-05T15:24:12;23.60;59.60
13606;DHT22;6874;52.084;5.090;2022-07-05T15:26:37;23.60;59.80
13606;DHT22;6874;52.084;5.090;2022-07-05T15:29:06;23.60;59.40
13606;DHT22;6874;52.084;5.090;2022-07-05T15:31:32;23.50;59.60
13606;DHT22;6874;52.084;5.090;2022-07-05T15:33:59;23.50;60.00
13606;DHT22;6874;52.084;5.090;2022-07-05T15:36:25;23.60;59.60
13606;DHT22;6874;52.084;5.090;2022-07-05T15:38:52;23.60;59.90
13606;DHT22;6874;52.084;5.090;2022-07-05T15:41:18;23.50;59.70
13606;DHT22;6874;52.084;5.090;2022-07-05T15:43:43;23.50;59.80
13606;DHT22;6874;52.084;5.090;2022-07-05T15:46:09;23.40;59.50
13606;DHT22;6874;52.084;5.090;2022-07-05T15:48:35;23.40;59.00
13606;DHT22;6874;52.084;5.090;2022-07-05T15:51:00;23.40;59.60
13606;DHT22;6874;52.084;5.090;2022-07-05T15:53:27;23.40;60.50
13606;DHT22;6874;52.084;5.090;2022-07-05T15:55:53;23.40;59.70
13606;DHT22;6874;52.084;5.090;2022-07-05T15:58:28;23.40;59.90
13606;DHT22;6874;52.084;5.090;2022-07-05T16:00:54;23.30;59.80
13606;DHT22;6874;52.084;5.090;2022-07-05T16:03:20;23.30;59.90
13606;DHT22;6874;52.084;5.090;2022-07-05T16:05:45;23.20;59.90
13606;DHT22;6874;52.084;5.090;2022-07-05T16:08:11;23.20;59.10
13606;DHT22;6874;52.084;5.090;2022-07-05T16:10:38;23.20;59.80
13606;DHT22;6874;52.084;5.090;2022-07-05T16:13:04;23.20;58.90